Warning: A non-numeric value encountered in /home/webcambr/www/wetterbrienz/weather28/wsFunctions.php on line 563

Live Webcam Brienzersee more information Live Webcam Brienzersee


Besuchen Sie unsere anderen Wetter Stationen:

Template documentation
and downloads

And another site



METAR-Meldungen aus der Umgebung

   
EBBR - Brussels International Airport, Belgium
Entfernung von der Station bis: W 14 km
Aktualisierung: 24-09-2018 01:50
Klar  
Klar  
   Wind: WNW 7.4 km/h
Wind: WNW 7.4 km/h
Temperatur: 8°C
Gefühlt: 7°C
Taupunkt: 7°C
Luftfeuchte: 93%
Luftdruck: 1028 hPa
Sichtbarkeit: More than 10 km
Bewölkung: Klar ft
EBBR 232350Z 29004KT CAVOK 08/07 Q1028 NOSIG
EBBE - Beauvechain (Bevekom), Belgium
Entfernung von der Station bis: SSO 17 km
Aktualisierung: 20-09-2018 16:25
Nicht aktuell
Teilweise bewölkt  
Teilweise bewölkt  
   Wind: SSW 27.8 km/h
Wind: SSW 27.8 km/h
Temperatur: 24°C
Taupunkt: 12°C
Luftfeuchte: 47%
Luftdruck: 1015 hPa
Bewölkt: Partly Cloudy
Sichtbarkeit: More than 10 km
Bewölkung: Teilweise bewölkt 25000 ft
EBBE 201425Z 21015KT 9999 SCT250 24/12 Q1015 BLU BLU
EBDT - Schaffen, Belgium
Entfernung von der Station bis: ONO 29 km
Aktualisierung: 20-09-2018 16:25
Nicht aktuell
Teilweise bewölkt  
Teilweise bewölkt  
   Wind: SSW 20.4 km/h
Wind: SSW 20.4 km/h
Temperatur: 25°C
Taupunkt: 12°C
Luftfeuchte: 44%
Luftdruck: 1014 hPa
Bewölkt: Partly Cloudy
Sichtbarkeit: More than 10 km
Bewölkung: Teilweise bewölkt 20000 ft
EBDT 201425Z AUTO 21011KT 9999 SCT200/// 25/12 Q1014 BLU
EBAW - Antwerp/Deurne, Belgium
Entfernung von der Station bis: NNW 38 km
Aktualisierung: 24-09-2018 01:50
Klar  
Klar  
   Wind: Westen 7.4 km/h
Wind: Westen 7.4 km/h
Temperatur: 9°C
Gefühlt: 8°C
Taupunkt: 8°C
Luftfeuchte: 94%
Luftdruck: 1028 hPa
Sichtbarkeit: More than 10 km
Bewölkung: Klar ft
EBAW 232350Z AUTO 27004KT CAVOK 09/08 Q1028
EBCI - Charleroi/Gosselies, Belgium
Entfernung von der Station bis: SSW 51 km
Aktualisierung: 24-09-2018 01:50
Teilweise bewölkt  
Teilweise bewölkt  
   Wind: Westen 9.3 km/h
Wind: Westen 9.3 km/h
Temperatur: 8°C
Gefühlt: 7°C
Taupunkt: 7°C
Luftfeuchte: 93%
Luftdruck: 1028 hPa
Bewölkt: Partly Cloudy
Sichtbarkeit: More than 10 km
Bewölkung: leicht bewölkt 800 ft,
Teilweise bewölkt 4500 ft
EBCI 232350Z 28005KT 240V310 9999 FEW008 SCT045 08/07 Q1028 NOSIG
EBLG - Bierset/Liege, Belgium
Entfernung von der Station bis: OSO 60 km
Aktualisierung: 24-09-2018 01:50
Nebel, Stark bewölkt  
Nebel, Stark bewölkt  
   Wind: Westen 7.4 km/h
Wind: Westen 7.4 km/h
Temperatur: 7°C
Gefühlt: 6°C
Taupunkt: 7°C
Luftfeuchte: 100%
Luftdruck: 1027 hPa
Bewölkt: Mostly Cloudy
Sichtbarkeit: 3 km
Bewölkung: Teilweise bewölkt 500 ft,
Stark bewölkt 4500 ft
EBLG 232350Z 28004KT 2500 BR SCT005 BKN045 07/07 Q1027 NOSIG

Script entwickelt von  Saratoga-weather.org Angepasst für das Template von  Weerstation Leuven